Arcata/Eureka (ACV/KACV)

Map

Destinations

Information

Location
Arcata/Eureka, CA
Local Time
21:28 / 9:28 pm
GMT Time
05:28 / 5:28 am
Gates
Unassigned
No FAA reported delays
METAR KACV 260453Z AUTO 00000KT 10SM CLR 03/03 A3010 RMK AO2 SLP201 T00330028
TAF KACV 252320Z 2600/2624 33012KT P6SM SCT040 FM260300 01005KT P6SM SCT025 FM260600 09003KT P6SM SKC FM261500 15004KT P6SM -SHRA BKN040 FM261800 20012G24KT 4SM SHRA BR SCT015 OVC025
  • No charts available